createdAt,value
2023-02-19T00:02:02.974Z,101192.75
2023-02-19T00:04:29.747Z,101181.47
2023-02-19T00:07:04.049Z,101179.72
2023-02-19T00:09:34.466Z,101184.06
2023-02-19T00:12:01.564Z,101198.78
2023-02-19T00:14:28.176Z,101191.91
2023-02-19T00:17:04.936Z,101194.50
2023-02-19T00:19:34.943Z,101198.84
2023-02-19T00:22:07.699Z,101198.84
2023-02-19T00:24:37.746Z,101187.56
2023-02-19T00:27:05.936Z,101185.78
2023-02-19T00:29:33.381Z,101189.19
2023-02-19T00:32:06.809Z,101182.31
2023-02-19T00:34:33.882Z,101182.25
2023-02-19T00:37:03.619Z,101181.38
2023-02-19T00:39:35.982Z,101167.56
2023-02-19T00:42:02.662Z,101164.09
2023-02-19T00:44:29.309Z,101166.72
2023-02-19T00:46:56.369Z,101158.06
2023-02-19T00:49:27.445Z,101158.91
2023-02-19T00:51:54.117Z,101164.13
2023-02-19T00:54:22.830Z,101165.00
2023-02-19T00:56:50.507Z,101173.66
2023-02-19T00:59:17.831Z,101173.66
2023-02-19T01:01:50.530Z,101173.63
2023-02-19T01:04:26.433Z,101169.31
2023-02-19T01:06:59.440Z,101160.66
2023-02-19T01:09:29.105Z,101160.66
2023-02-19T01:11:56.181Z,101154.59
2023-02-19T01:14:26.971Z,101147.66
2023-02-19T01:16:56.540Z,101153.72
2023-02-19T01:19:25.613Z,101145.94
2023-02-19T01:21:52.777Z,101145.06
2023-02-19T01:24:25.721Z,101142.47
2023-02-19T01:26:58.936Z,101131.22
2023-02-19T01:29:26.030Z,101119.13
2023-02-19T01:31:53.183Z,101111.34
2023-02-19T01:34:29.409Z,101105.19
2023-02-19T01:37:00.862Z,101087.03
2023-02-19T01:39:30.949Z,101081.03
2023-02-19T01:42:01.320Z,101095.78
2023-02-19T01:44:27.886Z,101099.25
2023-02-19T01:47:01.701Z,101093.22
2023-02-19T01:49:48.725Z,101082.84
2023-02-19T01:52:36.260Z,101088.91
2023-02-19T01:55:07.292Z,101088.84
2023-02-19T01:57:41.904Z,101085.41
2023-02-19T02:00:15.534Z,101082.81
2023-02-19T02:02:54.905Z,101076.72
2023-02-19T02:05:43.197Z,101067.19
2023-02-19T02:08:29.451Z,101068.06
2023-02-19T02:11:09.198Z,101070.72
2023-02-19T02:13:41.524Z,101069.00
2023-02-19T02:16:25.452Z,101062.06
2023-02-19T02:19:25.202Z,101066.38
2023-02-19T02:22:22.542Z,101056.88
2023-02-19T02:25:29.641Z,101056.88
2023-02-19T02:28:12.111Z,101059.47
2023-02-19T02:34:20.708Z,101065.53
2023-02-19T02:36:51.721Z,101062.06
2023-02-19T02:39:27.155Z,101065.47
2023-02-19T02:42:22.773Z,101061.97
2023-02-19T02:45:14.401Z,101056.72
2023-02-19T02:47:53.835Z,101054.13
2023-02-19T02:50:30.510Z,101045.53
2023-02-19T02:53:26.979Z,101039.53
2023-02-19T02:56:00.431Z,101036.94
2023-02-19T02:58:36.318Z,101043.03
2023-02-19T03:01:27.265Z,101049.94
2023-02-19T03:04:06.017Z,101051.75
2023-02-19T03:06:36.489Z,101052.66
2023-02-19T03:09:14.977Z,101059.63
2023-02-19T03:12:05.929Z,101065.69
2023-02-19T03:15:22.360Z,101062.19
2023-02-19T03:18:14.553Z,101062.19
2023-02-19T03:20:46.685Z,101066.56
2023-02-19T03:23:16.174Z,101067.44
2023-02-19T03:26:03.440Z,101069.16
2023-02-19T03:28:57.233Z,101063.97
2023-02-19T03:31:30.418Z,101077.81
2023-02-19T03:34:03.931Z,101083.88
2023-02-19T03:36:38.850Z,101082.16
2023-02-19T03:39:08.674Z,101082.19
2023-02-19T03:41:44.641Z,101090.00
2023-02-19T03:44:39.639Z,101084.84
2023-02-19T03:47:29.601Z,101085.78
2023-02-19T03:50:02.042Z,101089.28
2023-02-19T03:53:06.157Z,101089.28
2023-02-19T03:55:46.561Z,101095.38
2023-02-19T03:58:21.149Z,101100.56
2023-02-19T04:01:09.740Z,101103.16
2023-02-19T04:04:20.920Z,101102.34
2023-02-19T04:06:57.156Z,101088.50
2023-02-19T04:09:27.951Z,101104.94
2023-02-19T04:11:58.771Z,101107.53
2023-02-19T04:15:10.462Z,101114.44
2023-02-19T04:17:51.642Z,101117.91
2023-02-19T04:20:21.123Z,101117.00
2023-02-19T04:22:49.266Z,101120.50
2023-02-19T04:25:23.898Z,101120.47
2023-02-19T04:27:51.166Z,101126.50
2023-02-19T04:30:35.563Z,101129.09
2023-02-19T04:33:09.852Z,101139.44
2023-02-19T04:35:41.228Z,101139.41
2023-02-19T04:38:11.172Z,101146.34
2023-02-19T04:40:42.191Z,101150.63
2023-02-19T04:43:19.241Z,101151.47
2023-02-19T04:45:45.882Z,101152.34
2023-02-19T04:48:15.936Z,101156.66
2023-02-19T04:50:42.626Z,101154.94
2023-02-19T04:53:09.809Z,101157.53
2023-02-19T04:55:38.073Z,101158.41
2023-02-19T04:58:11.653Z,101157.53
2023-02-19T05:00:48.005Z,101153.19
2023-02-19T05:03:17.860Z,101146.28
2023-02-19T05:05:47.705Z,101158.38
2023-02-19T05:08:14.856Z,101163.53
2023-02-19T05:10:42.964Z,101163.56
2023-02-19T05:13:12.319Z,101168.75
2023-02-19T05:15:43.111Z,101164.44
2023-02-19T05:18:10.139Z,101164.44
2023-02-19T05:20:37.130Z,101160.97
2023-02-19T05:23:10.660Z,101161.81
2023-02-19T05:25:40.562Z,101166.97
2023-02-19T05:28:19.045Z,101171.28
2023-02-19T05:30:50.963Z,101156.59
2023-02-19T05:33:20.799Z,101157.50
2023-02-19T05:35:50.319Z,101157.47
2023-02-19T05:38:22.394Z,101168.69
2023-02-19T05:40:58.432Z,101166.13
2023-02-19T05:43:27.941Z,101174.75
2023-02-19T05:45:59.200Z,101170.38
2023-02-19T05:48:29.859Z,101175.56
2023-02-19T05:51:05.293Z,101174.69
2023-02-19T05:53:35.342Z,101182.47
2023-02-19T05:56:04.844Z,101181.63
2023-02-19T05:58:35.140Z,101182.50
2023-02-19T06:01:16.454Z,101176.47
2023-02-19T06:03:43.366Z,101192.81
2023-02-19T06:06:18.500Z,101185.91
2023-02-19T06:08:45.501Z,101193.69
2023-02-19T06:11:18.109Z,101193.69
2023-02-19T06:13:51.186Z,101193.72
2023-02-19T06:16:29.495Z,101192.88
2023-02-19T06:19:04.408Z,101194.56
2023-02-19T06:21:35.716Z,101198.91
2023-02-19T06:24:09.934Z,101200.56
2023-02-19T06:26:39.499Z,101200.53
2023-02-19T06:29:06.252Z,101208.28
2023-02-19T06:31:33.047Z,101205.69
2023-02-19T06:33:59.759Z,101204.91
2023-02-19T06:36:26.803Z,101198.81
2023-02-19T06:39:00.477Z,101202.31
2023-02-19T06:41:30.944Z,101209.97
2023-02-19T06:43:58.530Z,101210.91
2023-02-19T06:46:31.970Z,101217.00
2023-02-19T06:49:08.933Z,101219.53
2023-02-19T06:51:42.273Z,101229.00
2023-02-19T06:54:08.997Z,101235.06
2023-02-19T06:56:47.408Z,101239.34
2023-02-19T06:59:22.163Z,101246.25
2023-02-19T07:01:51.969Z,101261.81
2023-02-19T07:04:22.199Z,101276.50
2023-02-19T07:06:49.016Z,101274.78
2023-02-19T07:09:15.713Z,101279.97
2023-02-19T07:11:42.594Z,101282.53
2023-02-19T07:14:15.212Z,101288.56
2023-02-19T07:16:43.157Z,101286.97
2023-02-19T07:19:10.773Z,101282.69
2023-02-19T07:21:42.274Z,101286.06
2023-02-19T07:24:10.250Z,101295.63
2023-02-19T07:26:42.983Z,101288.66
2023-02-19T07:29:09.880Z,101291.22
2023-02-19T07:31:36.574Z,101299.88
2023-02-19T07:34:03.475Z,101298.16
2023-02-19T07:36:30.128Z,101301.72
2023-02-19T07:38:58.809Z,101315.50
2023-02-19T07:41:26.861Z,101312.91
2023-02-19T07:43:54.131Z,101314.56
2023-02-19T07:46:20.836Z,101325.00
2023-02-19T07:48:47.629Z,101332.75
2023-02-19T07:51:19.004Z,101336.22
2023-02-19T07:53:46.848Z,101334.47
2023-02-19T07:56:13.471Z,101344.03
2023-02-19T07:58:40.689Z,101339.78
2023-02-19T08:01:40.549Z,101335.44
2023-02-19T08:04:07.500Z,101357.03
2023-02-19T08:06:34.104Z,101357.06
2023-02-19T08:09:08.241Z,101363.16
2023-02-19T08:11:56.280Z,101374.47
2023-02-19T08:14:27.212Z,101377.84
2023-02-19T08:16:54.465Z,101390.09
2023-02-19T08:19:21.974Z,101395.25
2023-02-19T08:21:48.659Z,101403.97
2023-02-19T08:24:15.418Z,101395.34
2023-02-19T08:26:45.281Z,101411.75
2023-02-19T08:29:21.047Z,101410.97
2023-02-19T08:31:47.789Z,101424.00
2023-02-19T08:34:14.609Z,101429.19
2023-02-19T08:36:41.448Z,101422.28
2023-02-19T08:39:08.144Z,101436.13
2023-02-19T08:41:38.080Z,101438.72
2023-02-19T08:44:04.770Z,101442.19
2023-02-19T08:46:33.043Z,101445.69
2023-02-19T08:49:00.971Z,101457.75
2023-02-19T08:51:27.654Z,101462.13
2023-02-19T08:53:54.363Z,101459.56
2023-02-19T08:56:21.029Z,101462.13
2023-02-19T08:58:47.708Z,101469.91
2023-02-19T09:01:18.476Z,101478.53
2023-02-19T09:03:45.436Z,101481.19
2023-02-19T09:06:20.189Z,101481.19
2023-02-19T09:08:47.135Z,101484.66
2023-02-19T09:11:14.400Z,101485.53
2023-02-19T09:13:41.627Z,101495.06
2023-02-19T09:16:08.592Z,101497.66
2023-02-19T09:18:35.836Z,101492.41
2023-02-19T09:21:05.209Z,101497.63
2023-02-19T09:23:36.278Z,101509.75
2023-02-19T09:26:06.923Z,101511.53
2023-02-19T09:28:33.780Z,101508.88
2023-02-19T09:31:12.519Z,101513.22
2023-02-19T09:33:47.065Z,101514.00
2023-02-19T09:36:15.768Z,101511.44
2023-02-19T09:38:42.556Z,101514.88
2023-02-19T09:41:18.435Z,101526.19
2023-02-19T09:43:45.574Z,101522.69
2023-02-19T09:46:38.339Z,101515.78
2023-02-19T09:49:11.765Z,101519.25
2023-02-19T09:51:40.962Z,101523.59
2023-02-19T09:54:32.149Z,101525.38
2023-02-19T09:57:02.926Z,101532.31
2023-02-19T09:59:40.357Z,101536.66
2023-02-19T10:02:24.530Z,101542.72
2023-02-19T10:04:52.720Z,101545.34
2023-02-19T10:07:26.395Z,101554.78
2023-02-19T10:09:57.715Z,101558.31
2023-02-19T10:12:30.207Z,101569.59
2023-02-19T10:15:23.337Z,101562.66
2023-02-19T10:17:50.040Z,101560.06
2023-02-19T10:20:26.714Z,101564.38
2023-02-19T10:23:08.768Z,101574.81
2023-02-19T10:25:37.214Z,101580.88
2023-02-19T10:28:06.373Z,101588.66
2023-02-19T10:30:35.817Z,101597.34
2023-02-19T10:33:13.614Z,101600.78
2023-02-19T10:35:55.668Z,101596.44
2023-02-19T10:38:38.442Z,101600.78
2023-02-19T10:41:07.161Z,101606.78
2023-02-19T10:43:41.048Z,101611.16
2023-02-19T10:46:18.090Z,101609.34
2023-02-19T10:48:55.787Z,101615.44
2023-02-19T10:51:32.705Z,101632.81
2023-02-19T10:54:08.203Z,101619.84
2023-02-19T10:56:35.213Z,101635.44
2023-02-19T10:59:25.546Z,101640.69
2023-02-19T11:02:09.069Z,101633.75
2023-02-19T11:04:38.153Z,101649.34
2023-02-19T11:07:10.829Z,101640.66
2023-02-19T11:09:39.940Z,101651.94
2023-02-19T11:12:10.582Z,101646.72
2023-02-19T11:14:37.692Z,101653.56
2023-02-19T11:17:05.800Z,101651.81
2023-02-19T11:19:41.331Z,101658.84
2023-02-19T11:22:29.457Z,101664.00
2023-02-19T11:24:59.411Z,101664.75
2023-02-19T11:27:26.492Z,101664.59
2023-02-19T11:29:56.030Z,101676.16
2023-02-19T11:32:30.838Z,101677.81
2023-02-19T11:35:23.188Z,101683.72
2023-02-19T11:37:59.242Z,101691.44
2023-02-19T11:40:39.247Z,101689.72
2023-02-19T11:43:27.199Z,101687.97
2023-02-19T11:46:05.847Z,101676.94
2023-02-19T11:48:54.253Z,101689.84
2023-02-19T11:51:35.226Z,101693.38
2023-02-19T11:54:32.865Z,101688.31
2023-02-19T11:57:11.600Z,101692.63
2023-02-19T11:59:43.229Z,101697.00
2023-02-19T12:02:31.639Z,101688.34
2023-02-19T12:05:19.047Z,101695.31
2023-02-19T12:08:04.449Z,101686.63
2023-02-19T12:10:46.071Z,101670.16
2023-02-19T12:13:35.047Z,101682.16
2023-02-19T12:16:23.858Z,101688.06
2023-02-19T12:19:34.653Z,101690.59
2023-02-19T12:22:31.291Z,101701.72
2023-02-19T12:25:20.159Z,101699.88
2023-02-19T12:28:05.554Z,101714.59
2023-02-19T12:31:00.043Z,101702.31
2023-02-19T12:33:44.751Z,101707.81
2023-02-19T12:36:36.756Z,101711.53
2023-02-19T12:39:44.422Z,101719.38
2023-02-19T12:42:40.874Z,101725.41
2023-02-19T12:45:27.159Z,101728.13
2023-02-19T12:48:12.861Z,101728.16
2023-02-19T12:50:41.127Z,101732.53
2023-02-19T12:53:29.360Z,101730.00
2023-02-19T12:55:59.113Z,101725.66
2023-02-19T12:58:38.894Z,101742.19
2023-02-19T13:01:17.230Z,101736.09
2023-02-19T13:04:33.478Z,101748.22
2023-02-19T13:07:07.802Z,101752.56
2023-02-19T13:09:52.007Z,101749.09
2023-02-19T13:12:31.626Z,101752.56
2023-02-19T13:15:05.871Z,101752.41
2023-02-19T13:17:47.493Z,101759.28
2023-02-19T13:20:43.177Z,101759.38
2023-02-19T13:23:49.391Z,101760.25
2023-02-19T13:26:44.376Z,101754.16
2023-02-19T13:29:53.292Z,101755.91
2023-02-19T13:32:20.098Z,101761.13
2023-02-19T13:35:17.368Z,101755.91
2023-02-19T13:37:48.553Z,101752.47
2023-02-19T13:40:35.839Z,101766.41
2023-02-19T13:43:30.085Z,101758.56
2023-02-19T13:46:00.662Z,101754.22
2023-02-19T13:48:38.059Z,101755.94
2023-02-19T13:51:17.942Z,101764.59
2023-02-19T13:53:51.769Z,101757.59
2023-02-19T13:56:37.062Z,101769.75
2023-02-19T13:59:24.789Z,101770.63
2023-02-19T14:02:10.917Z,101775.94
2023-02-19T14:04:48.632Z,101779.38
2023-02-19T14:07:15.468Z,101779.34
2023-02-19T14:09:46.586Z,101783.66
2023-02-19T14:12:17.668Z,101789.75
2023-02-19T14:14:54.924Z,101792.41
2023-02-19T14:17:32.183Z,101799.38
2023-02-19T14:20:02.021Z,101795.91
2023-02-19T14:22:49.871Z,101809.88
2023-02-19T14:25:31.470Z,101796.84
2023-02-19T14:28:09.934Z,101803.81
2023-02-19T14:30:55.354Z,101812.50
2023-02-19T14:33:50.013Z,101815.09
2023-02-19T14:36:19.246Z,101805.53
2023-02-19T14:38:54.537Z,101804.66
2023-02-19T14:41:25.529Z,101809.88
2023-02-19T14:43:56.289Z,101802.06
2023-02-19T14:46:37.291Z,101807.28
2023-02-19T14:49:27.173Z,101805.56
2023-02-19T14:51:59.562Z,101809.91
2023-02-19T14:54:43.374Z,101808.16
2023-02-19T14:57:17.303Z,101815.97
2023-02-19T15:00:05.876Z,101821.16
2023-02-19T15:02:32.745Z,101835.06
2023-02-19T15:04:59.427Z,101834.22
2023-02-19T15:07:32.723Z,101828.09
2023-02-19T15:10:04.985Z,101824.59
2023-02-19T15:12:46.162Z,101820.28
2023-02-19T15:15:23.679Z,101829.84
2023-02-19T15:17:51.670Z,101841.13
2023-02-19T15:20:22.835Z,101843.75
2023-02-19T15:22:50.173Z,101837.66
2023-02-19T15:25:20.381Z,101838.53
2023-02-19T15:27:47.465Z,101839.41
2023-02-19T15:30:30.322Z,101838.50
2023-02-19T15:32:59.716Z,101848.03
2023-02-19T15:35:29.041Z,101847.13
2023-02-19T15:37:57.872Z,101849.75
2023-02-19T15:40:31.161Z,101847.13
2023-02-19T15:43:00.445Z,101849.69
2023-02-19T15:45:38.927Z,101851.41
2023-02-19T15:48:15.264Z,101854.84
2023-02-19T15:50:47.566Z,101853.13
2023-02-19T15:53:29.177Z,101856.56
2023-02-19T15:56:12.633Z,101861.72
2023-02-19T15:58:42.804Z,101866.03
2023-02-19T16:01:20.577Z,101870.34
2023-02-19T16:03:48.446Z,101872.06
2023-02-19T16:06:17.992Z,101873.78
2023-02-19T16:09:02.220Z,101885.03
2023-02-19T16:11:30.745Z,101883.28
2023-02-19T16:14:23.081Z,101897.94
2023-02-19T16:16:54.989Z,101906.50
2023-02-19T16:19:24.388Z,101904.78
2023-02-19T16:21:55.352Z,101908.25
2023-02-19T16:24:37.493Z,101905.69
2023-02-19T16:27:05.212Z,101913.34
2023-02-19T16:29:32.994Z,101924.56
2023-02-19T16:32:14.939Z,101928.03
2023-02-19T16:34:50.750Z,101933.16
2023-02-19T16:37:33.310Z,101938.25
2023-02-19T16:40:09.193Z,101939.97
2023-02-19T16:43:04.220Z,101947.78
2023-02-19T16:45:33.505Z,101949.47
2023-02-19T16:48:00.410Z,101948.50
2023-02-19T16:50:27.349Z,101946.72
2023-02-19T16:52:58.869Z,101947.50
2023-02-19T16:55:28.902Z,101950.00
2023-02-19T16:57:55.998Z,101961.94
2023-02-19T17:00:28.261Z,101959.38
2023-02-19T17:03:01.418Z,101955.84
2023-02-19T17:05:32.647Z,101959.16
2023-02-19T17:07:59.433Z,101964.06
2023-02-19T17:10:27.694Z,101968.97
2023-02-19T17:12:56.255Z,101973.09
2023-02-19T17:15:23.472Z,101972.84
2023-02-19T17:17:55.728Z,101974.41
2023-02-19T17:20:27.761Z,101972.44
2023-02-19T17:22:55.749Z,101969.66
2023-02-19T17:25:24.604Z,101972.91
2023-02-19T17:27:51.263Z,101968.28
2023-02-19T17:30:28.233Z,101976.78
2023-02-19T17:32:55.590Z,101975.63
2023-02-19T17:35:22.439Z,101984.94
2023-02-19T17:37:49.627Z,101988.28
2023-02-19T17:40:32.159Z,101989.88
2023-02-19T17:42:59.696Z,101975.88
2023-02-19T17:45:26.482Z,101991.38
2023-02-19T17:47:56.138Z,101984.34
2023-02-19T17:50:25.506Z,101988.56
2023-02-19T17:52:54.713Z,101994.53
2023-02-19T17:55:21.520Z,102002.97
2023-02-19T17:57:49.708Z,101998.66
2023-02-19T18:00:22.933Z,102002.00
2023-02-19T18:02:49.931Z,102008.81
2023-02-19T18:05:17.025Z,102019.00
2023-02-19T18:07:44.755Z,102005.00
2023-02-19T18:10:12.292Z,102007.78
2023-02-19T18:12:40.191Z,102018.09
2023-02-19T18:15:08.435Z,102007.59
2023-02-19T18:17:35.653Z,102015.34
2023-02-19T18:20:04.807Z,102022.25
2023-02-19T18:22:32.365Z,102017.97
2023-02-19T18:24:59.102Z,102028.50
2023-02-19T18:27:25.800Z,102027.66
2023-02-19T18:29:55.319Z,102033.78
2023-02-19T18:32:26.398Z,102030.34
2023-02-19T18:34:59.248Z,102024.22
2023-02-19T18:37:27.951Z,102026.78
2023-02-19T18:39:54.637Z,102030.25
2023-02-19T18:42:22.223Z,102032.91
2023-02-19T18:44:50.125Z,102032.00
2023-02-19T18:47:17.557Z,102037.13
2023-02-19T18:49:48.969Z,102039.59
2023-02-19T18:52:16.920Z,102036.94
2023-02-19T18:54:47.193Z,102039.44
2023-02-19T18:57:14.357Z,102049.78
2023-02-19T18:59:42.954Z,102048.84
2023-02-19T19:02:11.747Z,102041.94
2023-02-19T19:04:39.200Z,102047.81
2023-02-19T19:07:07.468Z,102039.16
2023-02-19T19:09:34.559Z,102036.47
2023-02-19T19:12:01.553Z,102032.16
2023-02-19T19:14:28.439Z,102039.03
2023-02-19T19:16:55.312Z,102035.53
2023-02-19T19:19:22.094Z,102035.44
2023-02-19T19:21:55.585Z,102035.41
2023-02-19T19:24:24.692Z,102038.81
2023-02-19T19:26:55.937Z,102049.94
2023-02-19T19:29:23.084Z,102043.00
2023-02-19T19:31:53.435Z,102042.06
2023-02-19T19:34:20.302Z,102041.16
2023-02-19T19:36:46.984Z,102039.38
2023-02-19T19:39:13.742Z,102039.38
2023-02-19T19:41:45.969Z,102041.06
2023-02-19T19:44:16.246Z,102028.91
2023-02-19T19:46:45.626Z,102036.66
2023-02-19T19:49:16.485Z,102027.16
2023-02-19T19:51:49.085Z,102034.84
2023-02-19T19:54:16.260Z,102032.22
2023-02-19T19:56:52.186Z,102018.38
2023-02-19T19:59:19.072Z,102031.25
2023-02-19T20:02:01.836Z,102033.84
2023-02-19T20:04:29.038Z,102031.13
2023-02-19T20:07:02.916Z,102032.00
2023-02-19T20:09:32.306Z,102017.97
2023-02-19T20:12:05.332Z,102023.91
2023-02-19T20:14:41.279Z,102029.78
2023-02-19T20:17:09.621Z,102027.94
2023-02-19T20:19:36.987Z,102027.78
2023-02-19T20:22:03.983Z,102038.84
2023-02-19T20:24:31.199Z,102035.31
2023-02-19T20:27:02.073Z,102046.44
2023-02-19T20:29:30.831Z,102047.22
2023-02-19T20:32:03.744Z,102053.13
2023-02-19T20:34:31.639Z,102052.31
2023-02-19T20:36:58.853Z,102048.84
2023-02-19T20:39:29.021Z,102049.63
2023-02-19T20:41:56.431Z,102057.25
2023-02-19T20:44:23.148Z,102058.09
2023-02-19T20:46:53.319Z,102056.34
2023-02-19T20:49:22.274Z,102059.78
2023-02-19T20:52:00.166Z,102059.00
2023-02-19T20:54:29.893Z,102059.00
2023-02-19T20:56:59.098Z,102064.22
2023-02-19T20:59:38.887Z,102067.72
2023-02-19T21:02:08.537Z,102060.03
2023-02-19T21:04:38.644Z,102061.00
2023-02-19T21:07:08.285Z,102048.91
2023-02-19T21:09:34.892Z,102059.34
2023-02-19T21:12:01.692Z,102065.28
2023-02-19T21:14:31.769Z,102062.75
2023-02-19T21:16:58.417Z,102064.47
2023-02-19T21:19:25.253Z,102068.59
2023-02-19T21:21:51.913Z,102067.72
2023-02-19T21:24:18.611Z,102061.72
2023-02-19T21:26:45.546Z,102059.09
2023-02-19T21:29:19.203Z,102053.03
2023-02-19T21:31:48.555Z,102049.63
2023-02-19T21:34:18.027Z,102047.81
2023-02-19T21:36:45.125Z,102040.97
2023-02-19T21:39:13.681Z,102037.50
2023-02-19T21:41:46.960Z,102033.09
2023-02-19T21:44:14.085Z,102028.72
2023-02-19T21:46:41.108Z,102029.56
2023-02-19T21:49:10.415Z,102027.81
2023-02-19T21:51:40.694Z,102027.84
2023-02-19T21:54:15.087Z,102022.75
2023-02-19T21:56:42.622Z,102019.44
2023-02-19T21:59:09.536Z,102011.84
2023-02-19T22:01:38.903Z,102006.84
2023-02-19T22:04:10.896Z,102016.50
2023-02-19T22:06:39.321Z,102006.22
2023-02-19T22:09:07.412Z,102003.75
2023-02-19T22:11:34.528Z,102002.00
2023-02-19T22:14:01.285Z,101996.03
2023-02-19T22:16:31.371Z,101993.47
2023-02-19T22:18:59.478Z,101990.09
2023-02-19T22:21:29.193Z,101988.50
2023-02-19T22:23:58.805Z,101984.28
2023-02-19T22:26:30.458Z,101976.59
2023-02-19T22:29:02.809Z,101974.84
2023-02-19T22:31:29.563Z,101963.59
2023-02-19T22:34:04.728Z,101967.09
2023-02-19T22:36:37.452Z,101967.06
2023-02-19T22:39:10.321Z,101964.38
2023-02-19T22:41:42.282Z,101959.97
2023-02-19T22:44:10.232Z,101960.72
2023-02-19T22:46:37.061Z,101964.94
2023-02-19T22:49:07.588Z,101968.44
2023-02-19T22:51:36.256Z,101976.41
2023-02-19T22:54:12.054Z,101980.78
2023-02-19T22:56:41.607Z,101991.16
2023-02-19T22:59:08.231Z,101992.03
2023-02-19T23:01:34.838Z,101997.22
2023-02-19T23:04:08.093Z,101986.81
2023-02-19T23:06:35.891Z,101994.69
2023-02-19T23:09:10.548Z,101994.72
2023-02-19T23:11:40.207Z,102004.22
2023-02-19T23:14:07.725Z,101998.28
2023-02-19T23:16:38.289Z,102000.91
2023-02-19T23:19:15.283Z,101993.06
2023-02-19T23:21:44.401Z,102004.22
2023-02-19T23:24:19.722Z,102002.44
2023-02-19T23:26:56.472Z,101999.91
2023-02-19T23:29:36.616Z,101987.78
2023-02-19T23:32:06.644Z,101991.97
2023-02-19T23:34:33.358Z,101991.91
2023-02-19T23:37:00.322Z,101979.72
2023-02-19T23:39:32.865Z,101976.09
2023-02-19T23:41:59.505Z,101967.34
2023-02-19T23:44:26.701Z,101976.00
2023-02-19T23:46:54.241Z,101970.66
2023-02-19T23:49:22.046Z,101957.69
2023-02-19T23:51:51.840Z,101961.09
2023-02-19T23:54:18.601Z,101965.38
2023-02-19T23:56:49.494Z,101956.63
2023-02-19T23:59:25.985Z,101951.50
